Pagrindinis puslapis
METAR-TAF:

METAR-TAF

Oro uostai :

Aženas, Prancūzija

platuma: 44-11N, ilguma: 000-36E, Aukštis: 61 m

Dabartinis oras

Ataskaita buvo paskelbta 34 minutes, ne 07:00 UTC
Vėjas 4 kt iš Vakarų, svyruoja nuo Pietvakarių ir Vakarų/Šiaurės Vakarų
Temperatūra 22°C
Drėgmė 73%
Slėgis 1011 hPa
Matomumas 10 km arba daugiau
nėra debesų žemiau 1500 m ir nėra kamuolinių lietaus debesų

METAR: LFBA 200700Z AUTO 27004KT 230V300 CAVOK 22/17 Q1011 NOSIG

Laikas: 09:34 (07:34 UTC)

Prognozė

Ataskaita buvo paskelbta 2 valandos ir 34 minutes, ne 05:00 UTC
Prognozė galioja nuo 20 metu 06 UTC su 20 metu 15 UTC
Vėjas 5 kt iš Vakarų
Matomumas 10 km arba daugiau
nėra debesų žemiau 1500 m ir nėra kamuolinių lietaus debesų

TAF: LFBA 200500Z 2006/2015 28005KT CAVOK

Orai ataskaitas ir orų prognozės (METAR, TAF).

turimą stotys yra geltonos ir raudonos taškus žemėlapyje.

Perkelti pele per norėdami pamatyti stoties vardą.

Tada spustelėkite, norėdami matyti oro stebėjimo ir prognozės.

Norėdami pakeisti žemėlapį: spustelėkite ant žalios mygtukų su juodo kryžiaus žemyn,; žalią mygtuką su brūkšneliu, jei norite nutolinti; arba žalių rodyklių gretimoms žemėlapius.


METAR-TAF: